Time;durP1;ratioP1;P1;durP2;ratioP2;P2;SDS_P1;SDS_P2;PMS_P1;PMS_P2;Temp;Humidity;BMP_temperature;BMP_pressure;BME280_temperature;BME280_humidity;BME280_pressure;Samples;Min_cycle;Max_cycle;Signal;HPM_P1;HPM_P2
2021/12/22 00:00:24;;;;;;;40.77;14.97;;;-2.70;99.90;;;;;;5051785;28;20203;-67
2021/12/22 00:02:51;;;;;;;34.13;15.57;;;-2.60;99.90;;;;;;5052494;28;20277;-67
2021/12/22 00:05:25;;;;;;;30.97;14.90;;;-2.50;99.90;;;;;;5051746;28;20205;-67
2021/12/22 00:07:53;;;;;;;32.83;15.87;;;-2.70;99.90;;;;;;5050790;28;20233;-67
2021/12/22 00:10:21;;;;;;;54.63;16.67;;;-2.60;99.90;;;;;;5035897;28;20221;-67
2021/12/22 00:12:49;;;;;;;35.73;15.73;;;-2.70;99.90;;;;;;5050315;28;20241;-67
2021/12/22 00:15:17;;;;;;;38.87;16.47;;;-2.80;99.90;;;;;;5060912;28;20204;-67
2021/12/22 00:17:44;;;;;;;31.57;14.93;;;-2.70;99.90;;;;;;5062604;28;20195;-67
2021/12/22 00:20:13;;;;;;;51.93;16.20;;;-2.60;99.90;;;;;;5051103;28;20209;-67
2021/12/22 00:22:41;;;;;;;52.03;16.60;;;-2.90;99.90;;;;;;5051297;28;20214;-67
2021/12/22 00:25:10;;;;;;;39.67;16.63;;;-3.20;99.90;;;;;;5052011;28;20297;-67
2021/12/22 00:27:37;;;;;;;34.83;15.87;;;-3.00;99.90;;;;;;5050016;28;20206;-67
2021/12/22 00:30:05;;;;;;;39.47;14.67;;;-2.80;99.90;;;;;;5051323;28;20211;-67
2021/12/22 00:32:34;;;;;;;30.83;15.90;;;-2.70;99.90;;;;;;5050641;28;20199;-67
2021/12/22 00:35:01;;;;;;;33.70;15.13;;;-2.60;99.90;;;;;;5051458;28;20203;-67
2021/12/22 00:37:30;;;;;;;34.93;16.03;;;-2.70;99.90;;;;;;5051090;28;20646;-67
2021/12/22 00:39:58;;;;;;;31.27;14.83;;;-2.90;99.90;;;;;;5059071;28;20207;-67
2021/12/22 00:42:27;;;;;;;33.60;15.93;;;-2.70;99.90;;;;;;5049857;28;20206;-67
2021/12/22 00:44:54;;;;;;;32.03;14.73;;;-2.70;99.90;;;;;;5051242;28;20199;-67
2021/12/22 00:47:24;;;;;;;31.10;15.87;;;-2.80;99.90;;;;;;5051438;28;20195;-67
2021/12/22 00:49:51;;;;;;;32.03;14.03;;;-2.80;99.90;;;;;;5050775;28;20222;-67
2021/12/22 00:52:18;;;;;;;38.33;13.63;;;-2.70;99.90;;;;;;5051230;28;20199;-67
2021/12/22 00:54:45;;;;;;;39.50;14.23;;;-2.60;99.90;;;;;;5051356;28;20213;-67
2021/12/22 00:57:14;;;;;;;45.47;12.90;;;-3.00;99.90;;;;;;5050799;28;20203;-67
2021/12/22 00:59:44;;;;;;;41.67;12.97;;;-2.90;99.90;;;;;;5050593;28;20191;-67
2021/12/22 01:02:12;;;;;;;28.33;13.23;;;-3.00;99.90;;;;;;5050154;28;20404;-66
2021/12/22 01:04:40;;;;;;;37.07;13.33;;;-2.90;99.90;;;;;;5051320;28;20209;-67
2021/12/22 01:07:07;;;;;;;34.13;15.07;;;-2.70;99.90;;;;;;5049764;28;20203;-67
2021/12/22 01:09:34;;;;;;;39.37;13.73;;;-2.80;99.90;;;;;;5059437;28;20225;-67
2021/12/22 01:12:02;;;;;;;32.87;14.27;;;-2.70;99.90;;;;;;5053628;28;20202;-67
2021/12/22 01:14:29;;;;;;;33.83;14.57;;;-2.70;99.90;;;;;;5063895;28;20202;-67
2021/12/22 01:17:01;;;;;;;29.53;13.03;;;-2.80;99.90;;;;;;5071506;28;20305;-67
2021/12/22 01:19:35;;;;;;;29.97;13.17;;;-2.90;99.90;;;;;;5054785;28;20199;-67
2021/12/22 01:22:16;;;;;;;33.50;12.30;;;-2.70;99.90;;;;;;5054022;28;20649;-67
2021/12/22 01:24:48;;;;;;;31.07;13.20;;;-2.60;99.90;;;;;;5043193;28;20199;-67
2021/12/22 01:27:19;;;;;;;31.53;13.97;;;-2.70;99.90;;;;;;5052887;28;20219;-67
2021/12/22 01:29:46;;;;;;;30.27;12.77;;;-2.70;99.90;;;;;;5054205;28;20308;-67
2021/12/22 01:32:17;;;;;;;30.30;13.20;;;-2.50;99.90;;;;;;5054048;28;20199;-67
2021/12/22 01:34:44;;;;;;;27.93;12.93;;;-2.50;99.90;;;;;;5054039;28;20237;-67
2021/12/22 01:37:10;;;;;;;25.07;11.63;;;-2.60;99.90;;;;;;5053942;28;20199;-67
2021/12/22 01:39:37;;;;;;;24.93;11.67;;;-2.60;99.90;;;;;;5054055;28;20566;-67
2021/12/22 01:42:05;;;;;;;24.60;11.57;;;-2.70;99.90;;;;;;5052663;28;20211;-67
2021/12/22 01:44:46;;;;;;;30.13;13.10;;;-2.80;99.90;;;;;;5054853;28;20286;-67
2021/12/22 01:49:59;;;;;;;26.83;11.73;;;-2.90;99.90;;;;;;5070585;28;20234;-67
2021/12/22 01:52:26;;;;;;;24.37;11.40;;;-2.90;99.90;;;;;;5049924;28;20188;-67
2021/12/22 01:55:05;;;;;;;25.03;11.50;;;-3.00;99.90;;;;;;5048535;28;20210;-67
2021/12/22 01:57:34;;;;;;;26.23;11.60;;;-3.00;99.90;;;;;;5050104;28;20657;-67
2021/12/22 02:00:02;;;;;;;26.67;12.07;;;-3.00;99.90;;;;;;5053892;28;20602;-67
2021/12/22 02:02:30;;;;;;;26.73;12.20;;;-3.10;99.90;;;;;;5053435;28;20252;-67
2021/12/22 02:04:57;;;;;;;27.37;11.63;;;-3.10;99.90;;;;;;5053583;28;20641;-67
2021/12/22 02:07:24;;;;;;;25.17;11.23;;;-3.10;99.90;;;;;;5054697;28;20206;-67
2021/12/22 02:10:13;;;;;;;26.50;10.77;;;-3.20;99.90;;;;;;5074089;28;20321;-66
2021/12/22 02:12:46;;;;;;;29.77;11.27;;;-3.20;99.90;;;;;;5056800;28;20636;-67
2021/12/22 02:15:13;;;;;;;28.03;11.37;;;-3.30;99.90;;;;;;5053334;28;20218;-67
2021/12/22 02:17:42;;;;;;;33.20;11.40;;;-3.30;99.90;;;;;;5053312;28;20199;-67
2021/12/22 02:20:11;;;;;;;24.40;10.37;;;-3.30;99.90;;;;;;5052518;28;20278;-67
2021/12/22 02:22:41;;;;;;;27.00;11.90;;;-3.40;99.90;;;;;;5052592;28;20282;-67
2021/12/22 02:25:15;;;;;;;25.67;10.57;;;-3.40;99.90;;;;;;5039005;28;20230;-68
2021/12/22 02:27:48;;;;;;;23.30;10.30;;;-3.50;99.90;;;;;;5042239;28;20207;-68
2021/12/22 02:30:22;;;;;;;23.03;10.70;;;-3.40;99.90;;;;;;5053535;28;20712;-68
2021/12/22 02:35:41;;;;;;;23.70;10.87;;;-3.40;99.90;;;;;;5072996;28;20194;-68
2021/12/22 02:38:14;;;;;;;31.07;9.80;;;-3.50;99.90;;;;;;5052035;28;20294;-68
2021/12/22 02:40:41;;;;;;;24.87;9.07;;;-3.60;99.90;;;;;;5053356;28;20246;-68
2021/12/22 02:43:08;;;;;;;21.90;9.67;;;-3.70;99.90;;;;;;5051352;28;20285;-68
2021/12/22 02:45:36;;;;;;;21.13;8.93;;;-3.90;99.90;;;;;;5053355;28;20207;-68
2021/12/22 02:48:04;;;;;;;23.07;9.50;;;-3.80;99.90;;;;;;5052338;28;20222;-68
2021/12/22 02:50:36;;;;;;;18.53;8.53;;;-3.90;99.90;;;;;;5053078;28;20234;-68
2021/12/22 02:53:05;;;;;;;19.83;9.37;;;-4.00;99.90;;;;;;5055625;28;20210;-68
2021/12/22 02:55:44;;;;;;;20.17;8.60;;;-4.10;99.90;;;;;;5053996;28;20657;-68
2021/12/22 02:58:15;;;;;;;19.53;8.93;;;-3.90;99.90;;;;;;5052014;28;20286;-68
2021/12/22 03:01:01;;;;;;;20.50;8.47;;;-4.10;99.90;;;;;;5053029;28;20658;-68
2021/12/22 03:03:35;;;;;;;21.27;8.80;;;-4.10;99.90;;;;;;5067922;28;20275;-68
2021/12/22 03:06:09;;;;;;;20.40;8.80;;;-4.10;99.90;;;;;;5052025;28;20543;-68
2021/12/22 03:08:35;;;;;;;17.73;7.83;;;-4.20;99.90;;;;;;5052263;28;20222;-68
2021/12/22 03:11:02;;;;;;;18.10;7.97;;;-4.20;99.90;;;;;;5052034;28;20202;-68
2021/12/22 03:13:30;;;;;;;19.40;7.73;;;-4.20;99.90;;;;;;5051735;28;20206;-68
2021/12/22 03:15:57;;;;;;;20.53;8.40;;;-4.20;99.90;;;;;;5050036;28;20294;-68
2021/12/22 03:18:24;;;;;;;19.63;8.40;;;-4.40;99.90;;;;;;5032289;28;20203;-68
2021/12/22 03:21:00;;;;;;;22.20;8.53;;;-4.30;99.90;;;;;;5032738;28;20203;-68
2021/12/22 03:23:28;;;;;;;21.77;8.33;;;-4.20;99.90;;;;;;5043499;28;20206;-68
2021/12/22 03:25:57;;;;;;;21.57;9.93;;;-4.30;99.90;;;;;;5072406;28;20206;-68
2021/12/22 03:28:24;;;;;;;20.70;7.97;;;-4.30;99.90;;;;;;5072174;28;20313;-68
2021/12/22 03:30:53;;;;;;;19.90;8.73;;;-4.30;99.90;;;;;;5072026;28;20206;-68
2021/12/22 03:33:20;;;;;;;20.10;8.50;;;-4.40;99.90;;;;;;5051242;28;20199;-68
2021/12/22 03:35:46;;;;;;;21.90;9.20;;;-4.50;99.90;;;;;;5066779;28;20555;-68
2021/12/22 03:38:13;;;;;;;19.87;8.60;;;-4.50;99.90;;;;;;5055050;28;20633;-68
2021/12/22 03:40:41;;;;;;;19.37;9.23;;;-4.30;99.90;;;;;;5051206;28;20199;-68
2021/12/22 03:43:08;;;;;;;18.70;8.73;;;-4.30;99.90;;;;;;5051643;28;20665;-68
2021/12/22 03:45:35;;;;;;;18.50;7.33;;;-4.40;99.90;;;;;;5051317;28;20225;-68
2021/12/22 03:48:02;;;;;;;19.23;9.23;;;-4.70;99.90;;;;;;5051416;28;20203;-69
2021/12/22 03:50:29;;;;;;;20.30;9.10;;;-4.70;99.90;;;;;;5051388;28;20222;-68
2021/12/22 03:52:56;;;;;;;17.30;8.43;;;-4.70;99.90;;;;;;5051166;28;20568;-68
2021/12/22 03:55:23;;;;;;;18.00;8.17;;;-4.70;99.90;;;;;;5051857;28;20203;-68
2021/12/22 03:57:51;;;;;;;20.27;9.93;;;-4.80;99.90;;;;;;5051857;28;20209;-68
2021/12/22 04:00:18;;;;;;;20.50;8.40;;;-4.90;99.90;;;;;;5055329;28;20668;-68
2021/12/22 04:02:45;;;;;;;19.07;8.10;;;-4.90;99.90;;;;;;5051852;28;20653;-68
2021/12/22 04:05:13;;;;;;;18.47;8.13;;;-4.90;99.90;;;;;;5051545;28;20203;-68
2021/12/22 04:07:39;;;;;;;18.37;7.90;;;-4.80;99.90;;;;;;5050002;28;20199;-68
2021/12/22 04:10:19;;;;;;;20.83;9.03;;;-4.80;99.90;;;;;;5051102;28;20226;-68
2021/12/22 04:12:46;;;;;;;27.97;10.97;;;-4.80;99.90;;;;;;5050733;28;20194;-68
2021/12/22 04:15:14;;;;;;;20.57;8.63;;;-4.80;99.90;;;;;;5060037;28;20206;-68
2021/12/22 04:17:41;;;;;;;20.03;9.07;;;-4.80;99.90;;;;;;5035714;28;20194;-68
2021/12/22 04:20:09;;;;;;;18.70;10.03;;;-4.90;99.90;;;;;;5050699;28;20195;-68
2021/12/22 04:22:36;;;;;;;21.10;9.93;;;-4.90;99.90;;;;;;5051361;28;20210;-68
2021/12/22 04:25:04;;;;;;;17.30;8.03;;;-4.90;99.90;;;;;;5044250;28;20204;-68
2021/12/22 04:27:31;;;;;;;18.47;8.23;;;-5.00;99.90;;;;;;5050425;28;20210;-68
2021/12/22 04:29:58;;;;;;;18.13;7.60;;;-5.20;99.90;;;;;;5051310;28;20227;-69
2021/12/22 04:32:26;;;;;;;18.07;8.70;;;-5.20;99.90;;;;;;5050846;28;20210;-68
2021/12/22 04:34:53;;;;;;;17.80;7.63;;;-5.30;99.90;;;;;;5051373;28;20198;-69
2021/12/22 04:37:20;;;;;;;19.03;8.27;;;-5.20;99.90;;;;;;5050649;28;20204;-67
2021/12/22 04:39:47;;;;;;;18.37;7.73;;;-5.10;99.90;;;;;;5068165;28;20198;-67
2021/12/22 04:42:15;;;;;;;17.97;8.10;;;-5.10;99.90;;;;;;5050588;28;20199;-67
2021/12/22 04:44:42;;;;;;;17.30;7.97;;;-5.20;99.90;;;;;;5052588;28;20199;-67
2021/12/22 04:47:09;;;;;;;19.00;7.67;;;-5.40;99.90;;;;;;5055068;28;20199;-67
2021/12/22 04:49:39;;;;;;;17.17;8.07;;;-5.40;99.90;;;;;;5054694;28;20584;-67
2021/12/22 04:52:08;;;;;;;18.67;9.27;;;-5.60;99.90;;;;;;5054875;28;20286;-67
2021/12/22 04:54:46;;;;;;;17.00;8.00;;;-5.50;99.90;;;;;;5055448;28;20217;-67
2021/12/22 04:57:13;;;;;;;17.23;7.63;;;-5.50;99.90;;;;;;5049420;28;20290;-67
2021/12/22 04:59:40;;;;;;;18.43;8.60;;;-5.40;99.90;;;;;;5053958;28;20197;-67
2021/12/22 05:02:07;;;;;;;18.80;8.30;;;-5.50;99.90;;;;;;5054430;28;20486;-67
2021/12/22 05:04:34;;;;;;;20.27;9.80;;;-5.40;99.90;;;;;;5054738;28;20268;-67
2021/12/22 05:07:02;;;;;;;18.30;8.17;;;-5.40;99.90;;;;;;5053308;28;20646;-67
2021/12/22 05:09:29;;;;;;;18.97;8.60;;;-5.40;99.90;;;;;;5054922;28;20233;-67
2021/12/22 05:11:56;;;;;;;18.67;9.00;;;-5.30;99.90;;;;;;5054061;28;20209;-66
2021/12/22 05:14:23;;;;;;;18.23;7.93;;;-5.40;99.90;;;;;;5062637;28;20202;-67
2021/12/22 05:16:52;;;;;;;18.40;8.10;;;-5.50;99.90;;;;;;5055046;28;20202;-67
2021/12/22 05:19:19;;;;;;;19.63;9.13;;;-5.50;99.90;;;;;;5053938;28;20229;-67
2021/12/22 05:21:46;;;;;;;21.63;8.77;;;-5.40;99.90;;;;;;5054532;28;20210;-67
2021/12/22 05:24:15;;;;;;;19.80;9.00;;;-5.30;99.90;;;;;;5054181;28;20569;-67
2021/12/22 05:26:41;;;;;;;17.30;8.17;;;-5.40;99.90;;;;;;5053868;28;20581;-67
2021/12/22 05:29:09;;;;;;;18.73;8.27;;;-5.50;99.90;;;;;;5053329;28;20230;-67
2021/12/22 05:31:36;;;;;;;19.50;9.30;;;-5.70;99.90;;;;;;5054594;28;20199;-67
2021/12/22 05:34:02;;;;;;;17.47;7.67;;;-5.70;99.90;;;;;;5049886;28;20575;-67
2021/12/22 05:36:30;;;;;;;16.77;8.07;;;-5.70;99.90;;;;;;5054064;28;20206;-68
2021/12/22 05:38:57;;;;;;;19.13;9.00;;;-5.60;99.90;;;;;;5048370;28;20218;-67
2021/12/22 05:41:25;;;;;;;17.53;8.17;;;-5.70;99.90;;;;;;5051307;28;20566;-67
2021/12/22 05:43:52;;;;;;;18.27;8.03;;;-5.70;99.90;;;;;;5048101;28;20581;-67
2021/12/22 05:46:19;;;;;;;19.10;8.47;;;-5.60;99.90;;;;;;5052562;28;20290;-67
2021/12/22 05:48:47;;;;;;;20.47;8.27;;;-5.70;99.90;;;;;;5052034;28;20672;-67
2021/12/22 05:51:14;;;;;;;19.60;8.07;;;-5.70;99.90;;;;;;5038041;28;20300;-67
2021/12/22 05:53:41;;;;;;;17.43;7.83;;;-5.50;99.90;;;;;;5053754;28;20560;-67
2021/12/22 05:56:08;;;;;;;18.43;8.17;;;-5.70;99.90;;;;;;5052016;28;20194;-67
2021/12/22 05:58:36;;;;;;;19.10;9.53;;;-5.70;99.90;;;;;;5053259;28;20209;-67
2021/12/22 06:01:03;;;;;;;17.90;8.10;;;-5.60;99.90;;;;;;5061498;28;20580;-67
2021/12/22 06:03:30;;;;;;;20.67;9.00;;;-5.70;99.90;;;;;;5059594;28;20205;-67
2021/12/22 06:05:57;;;;;;;17.97;7.90;;;-5.80;99.90;;;;;;5053400;28;20195;-67
2021/12/22 06:08:23;;;;;;;19.20;8.53;;;-5.90;99.90;;;;;;5059024;28;20228;-67
2021/12/22 06:10:50;;;;;;;17.23;7.90;;;-5.70;99.90;;;;;;5067356;28;20218;-67
2021/12/22 06:13:17;;;;;;;17.30;8.63;;;-5.70;99.90;;;;;;5052596;28;20205;-67
2021/12/22 06:15:45;;;;;;;18.40;7.93;;;-5.80;99.90;;;;;;5053600;28;20518;-67
2021/12/22 06:18:12;;;;;;;22.87;8.10;;;-5.90;99.90;;;;;;5053215;28;20557;-68
2021/12/22 06:20:39;;;;;;;17.93;8.60;;;-6.00;99.90;;;;;;5052997;28;20203;-67
2021/12/22 06:23:06;;;;;;;19.23;8.10;;;-5.90;99.90;;;;;;5056524;28;20649;-67
2021/12/22 06:25:33;;;;;;;19.90;8.33;;;-5.90;99.90;;;;;;5063175;28;20195;-68
2021/12/22 06:28:00;;;;;;;17.43;7.93;;;-5.80;99.90;;;;;;5052691;28;20233;-67
2021/12/22 06:30:27;;;;;;;20.87;8.90;;;-5.60;99.90;;;;;;5052812;28;20223;-67
2021/12/22 06:32:55;;;;;;;17.07;7.70;;;-5.70;99.90;;;;;;5052727;28;20566;-67
2021/12/22 06:35:22;;;;;;;18.03;8.63;;;-5.90;99.90;;;;;;5052132;28;20555;-67
2021/12/22 06:37:50;;;;;;;19.87;9.77;;;-5.90;99.90;;;;;;5052483;28;20206;-67
2021/12/22 06:40:17;;;;;;;17.80;7.80;;;-5.80;99.90;;;;;;5053992;28;20202;-67
2021/12/22 06:42:44;;;;;;;17.93;8.73;;;-5.80;99.90;;;;;;5052052;28;20209;-67
2021/12/22 06:45:13;;;;;;;18.83;9.37;;;-5.80;99.90;;;;;;5052999;28;20197;-67
2021/12/22 06:47:41;;;;;;;18.03;9.10;;;-5.80;99.90;;;;;;5053159;28;20650;-67
2021/12/22 06:50:10;;;;;;;17.63;8.93;;;-6.10;99.90;;;;;;5051935;28;20222;-67
2021/12/22 06:52:37;;;;;;;18.57;8.97;;;-5.90;99.90;;;;;;5052333;28;20199;-67
2021/12/22 06:55:05;;;;;;;21.63;11.07;;;-5.80;99.90;;;;;;5052535;28;20207;-67
2021/12/22 06:57:33;;;;;;;23.07;11.00;;;-5.80;99.90;;;;;;5052016;28;20203;-69
2021/12/22 07:00:02;;;;;;;24.33;11.50;;;-5.90;99.90;;;;;;5053954;28;20203;-70
2021/12/22 07:02:31;;;;;;;21.57;10.50;;;-5.90;99.90;;;;;;5051933;28;20302;-70
2021/12/22 07:04:58;;;;;;;18.87;8.93;;;-5.70;99.90;;;;;;5052211;28;20280;-68
2021/12/22 07:07:27;;;;;;;19.87;9.07;;;-5.70;99.90;;;;;;5051145;28;20573;-67
2021/12/22 07:09:53;;;;;;;21.17;10.53;;;-5.80;99.90;;;;;;5051743;28;20226;-68
2021/12/22 07:12:20;;;;;;;18.43;8.50;;;-5.80;99.90;;;;;;5054414;28;20293;-67
2021/12/22 07:14:47;;;;;;;20.67;9.47;;;-5.80;99.90;;;;;;5051282;28;20672;-67
2021/12/22 07:17:14;;;;;;;19.40;8.23;;;-5.90;99.90;;;;;;5055046;28;20293;-67
2021/12/22 07:19:42;;;;;;;20.97;9.07;;;-5.90;99.90;;;;;;5054189;28;20675;-67
2021/12/22 07:22:08;;;;;;;17.80;8.13;;;-5.80;99.90;;;;;;5056223;28;20296;-67
2021/12/22 07:24:37;;;;;;;20.97;9.23;;;-6.00;99.90;;;;;;5053140;28;20206;-67
2021/12/22 07:27:04;;;;;;;17.33;8.10;;;-5.90;99.90;;;;;;5053590;28;20673;-68
2021/12/22 07:29:31;;;;;;;20.90;9.67;;;-5.90;99.90;;;;;;5051758;28;20206;-67
2021/12/22 07:31:58;;;;;;;22.57;9.83;;;-5.70;99.90;;;;;;5051480;28;20214;-67
2021/12/22 07:34:33;;;;;;;23.53;10.70;;;-5.70;99.90;;;;;;5061264;28;20293;-67
2021/12/22 07:37:06;;;;;;;20.70;9.47;;;-5.70;99.90;;;;;;5055296;28;20653;-67
2021/12/22 07:39:33;;;;;;;21.67;9.97;;;-5.70;99.90;;;;;;5050753;28;20198;-67
2021/12/22 07:42:01;;;;;;;20.90;10.17;;;-5.70;99.90;;;;;;5052583;28;20679;-67
2021/12/22 07:44:28;;;;;;;20.33;9.83;;;-5.60;99.90;;;;;;5052086;28;20215;-68
2021/12/22 07:46:55;;;;;;;21.70;11.47;;;-5.60;99.90;;;;;;5049765;28;20195;-67
2021/12/22 07:49:21;;;;;;;21.00;10.80;;;-5.70;99.90;;;;;;5051175;28;20632;-68
2021/12/22 07:51:48;;;;;;;20.20;9.33;;;-5.70;99.90;;;;;;5057376;28;20227;-67
2021/12/22 07:54:15;;;;;;;20.73;12.03;;;-5.60;99.90;;;;;;5055334;28;20203;-67
2021/12/22 07:56:42;;;;;;;21.27;10.87;;;-5.40;99.90;;;;;;5051228;28;20225;-67
2021/12/22 07:59:10;;;;;;;20.70;9.13;;;-5.40;99.90;;;;;;5052971;28;20207;-68
2021/12/22 08:01:38;;;;;;;19.63;8.53;;;-5.40;99.90;;;;;;5053427;28;20218;-67
2021/12/22 08:04:05;;;;;;;19.43;9.00;;;-5.30;99.90;;;;;;5054286;28;20222;-67
2021/12/22 08:06:31;;;;;;;19.93;9.10;;;-5.20;99.90;;;;;;5053963;28;20507;-67
2021/12/22 08:08:58;;;;;;;22.37;9.57;;;-5.20;99.90;;;;;;5054287;28;20661;-67
2021/12/22 08:11:25;;;;;;;19.30;10.40;;;-5.20;99.90;;;;;;5047501;28;20218;-67
2021/12/22 08:13:52;;;;;;;20.27;10.37;;;-5.10;99.90;;;;;;5051603;28;20559;-67
2021/12/22 08:16:21;;;;;;;21.77;9.07;;;-5.00;99.90;;;;;;5058986;28;20233;-67
2021/12/22 08:18:48;;;;;;;19.73;8.83;;;-5.00;99.90;;;;;;5054412;28;20203;-67
2021/12/22 08:21:15;;;;;;;19.93;10.23;;;-5.00;99.90;;;;;;5054030;28;20204;-67
2021/12/22 08:23:42;;;;;;;19.27;9.23;;;-4.90;99.90;;;;;;5056386;28;20253;-67
2021/12/22 08:26:09;;;;;;;19.10;8.60;;;-4.90;99.90;;;;;;5059495;28;20579;-67
2021/12/22 08:28:36;;;;;;;20.07;9.30;;;-4.70;99.90;;;;;;5055218;28;20215;-67
2021/12/22 08:31:03;;;;;;;19.80;9.33;;;-4.50;99.90;;;;;;5055764;28;20215;-67
2021/12/22 08:33:37;;;;;;;22.80;10.27;;;-4.20;99.90;;;;;;5057294;28;20198;-67
2021/12/22 08:38:53;;;;;;;20.90;9.97;;;-3.70;99.90;;;;;;5065151;28;20210;-68
2021/12/22 08:41:21;;;;;;;19.93;10.63;;;-3.80;99.90;;;;;;5057174;28;20203;-67
2021/12/22 08:43:48;;;;;;;22.70;10.67;;;-3.90;99.90;;;;;;5056472;28;20819;-67
2021/12/22 08:46:15;;;;;;;23.50;10.60;;;-3.80;99.90;;;;;;5057811;28;20687;-67
2021/12/22 08:48:44;;;;;;;23.90;11.83;;;-3.80;99.90;;;;;;5065308;28;20679;-68
2021/12/22 08:51:11;;;;;;;26.23;12.23;;;-3.60;99.90;;;;;;5058112;28;20211;-67
2021/12/22 08:53:38;;;;;;;28.80;12.23;;;-3.10;99.90;;;;;;5054854;28;20237;-68
2021/12/22 08:56:05;;;;;;;24.67;12.13;;;-2.40;99.90;;;;;;5049385;28;20200;-67
2021/12/22 08:58:32;;;;;;;25.37;12.13;;;-2.40;99.90;;;;;;5055368;28;20203;-67
2021/12/22 09:01:00;;;;;;;22.43;11.00;;;-2.30;99.90;;;;;;5054594;28;20649;-68
2021/12/22 09:03:26;;;;;;;23.00;10.47;;;-2.30;99.90;;;;;;5054752;28;20209;-68
2021/12/22 09:05:55;;;;;;;25.60;12.03;;;-2.30;99.90;;;;;;5055073;28;20210;-67
2021/12/22 09:08:22;;;;;;;23.63;10.90;;;-2.20;99.90;;;;;;5054576;28;20210;-68
2021/12/22 09:10:48;;;;;;;22.90;10.73;;;-2.30;99.90;;;;;;5068413;28;20237;-68
2021/12/22 09:13:16;;;;;;;20.43;9.60;;;-2.30;99.90;;;;;;5067423;28;20206;-68
2021/12/22 09:15:43;;;;;;;21.60;9.90;;;-2.40;99.90;;;;;;5054341;28;20207;-68
2021/12/22 09:18:10;;;;;;;22.13;11.03;;;-2.30;99.90;;;;;;5054769;28;20213;-68
2021/12/22 09:20:37;;;;;;;23.30;10.80;;;-2.20;99.90;;;;;;5054291;28;20209;-68
2021/12/22 09:23:06;;;;;;;23.10;11.60;;;-2.00;99.90;;;;;;5053750;28;20199;-70
2021/12/22 09:25:33;;;;;;;23.23;12.27;;;-2.00;99.90;;;;;;5054044;28;20199;-71
2021/12/22 09:28:00;;;;;;;23.47;10.40;;;-2.10;99.90;;;;;;5054119;28;20214;-71
2021/12/22 09:30:35;;;;;;;21.83;10.53;;;-2.20;99.90;;;;;;5053733;28;20207;-71
2021/12/22 09:33:02;;;;;;;21.57;10.80;;;-2.10;99.90;;;;;;5053536;28;20587;-71
2021/12/22 09:35:29;;;;;;;19.60;9.70;;;-2.00;99.90;;;;;;5049265;28;20225;-71
2021/12/22 09:37:56;;;;;;;26.00;11.83;;;-1.70;99.90;;;;;;5054654;28;20211;-71
2021/12/22 09:40:24;;;;;;;29.13;13.70;;;-1.60;99.90;;;;;;5071611;28;20202;-70
2021/12/22 09:42:51;;;;;;;23.27;11.47;;;-1.40;99.90;;;;;;5073727;28;20213;-69
2021/12/22 09:45:19;;;;;;;29.57;14.60;;;-1.10;99.90;;;;;;5053343;28;20203;-71
2021/12/22 09:48:03;;;;;;;28.63;15.00;;;-1.20;99.90;;;;;;5052945;28;20207;-71
2021/12/22 09:50:44;;;;;;;27.13;13.37;;;-1.40;99.90;;;;;;5042822;28;20388;-71
2021/12/22 09:53:11;;;;;;;27.43;13.53;;;-1.50;99.90;;;;;;5036029;28;20238;-71
2021/12/22 09:55:39;;;;;;;27.43;13.73;;;-1.50;99.90;;;;;;5052343;28;20210;-71
2021/12/22 09:58:06;;;;;;;28.73;14.40;;;-1.50;99.90;;;;;;5054286;28;20209;-71
2021/12/22 10:00:35;;;;;;;29.47;15.53;;;-1.50;99.90;;;;;;5063024;28;20227;-71
2021/12/22 10:03:02;;;;;;;25.50;13.63;;;-1.40;99.90;;;;;;5053757;28;20264;-70
2021/12/22 10:05:29;;;;;;;28.53;14.27;;;-1.30;99.90;;;;;;5053658;28;20201;-71
2021/12/22 10:08:09;;;;;;;23.43;13.87;;;-1.20;99.90;;;;;;5052699;28;20210;-70
2021/12/22 10:10:40;;;;;;;24.80;11.80;;;-1.10;99.90;;;;;;5054918;28;20216;-71
2021/12/22 10:13:08;;;;;;;26.30;11.90;;;-1.00;99.90;;;;;;5058030;28;20290;-71
2021/12/22 10:15:36;;;;;;;25.23;11.00;;;-0.90;99.90;;;;;;5053617;28;20672;-71
2021/12/22 10:18:11;;;;;;;24.23;11.90;;;-0.90;99.90;;;;;;5051816;28;20211;-71
2021/12/22 10:20:40;;;;;;;20.93;9.83;;;-0.70;99.90;;;;;;5053292;28;20212;-71
2021/12/22 10:23:21;;;;;;;21.83;10.10;;;-0.60;99.90;;;;;;5057164;28;20617;-71
2021/12/22 10:25:55;;;;;;;22.70;10.60;;;-0.30;99.90;;;;;;5050395;28;20217;-71
2021/12/22 10:28:23;;;;;;;22.50;10.43;;;-0.40;99.90;;;;;;5050998;28;20306;-71
2021/12/22 10:30:56;;;;;;;19.93;8.80;;;-0.60;99.90;;;;;;5052890;28;20199;-71
2021/12/22 10:33:25;;;;;;;21.97;9.90;;;-0.50;99.90;;;;;;5054990;28;20210;-71
2021/12/22 10:35:54;;;;;;;20.87;9.80;;;-0.50;99.90;;;;;;5055587;28;20196;-71
2021/12/22 10:38:23;;;;;;;21.67;10.10;;;-0.40;99.90;;;;;;5050851;28;20638;-71
2021/12/22 10:40:54;;;;;;;21.50;9.73;;;-0.40;99.90;;;;;;5053117;28;20204;-71
2021/12/22 10:43:23;;;;;;;20.60;9.37;;;-0.30;99.90;;;;;;5050079;28;20210;-71
2021/12/22 10:45:52;;;;;;;24.67;10.13;;;-0.30;99.90;;;;;;5056588;28;20203;-71
2021/12/22 10:51:12;;;;;;;21.37;8.80;;;-0.10;99.90;;;;;;5055574;28;20225;-71
2021/12/22 10:53:44;;;;;;;21.70;8.90;;;-0.10;99.90;;;;;;5057093;28;20235;-71
2021/12/22 10:56:22;;;;;;;21.70;10.20;;;0.00;99.90;;;;;;5066619;28;20202;-71
2021/12/22 10:59:00;;;;;;;20.70;10.43;;;0.10;99.90;;;;;;5053090;28;20210;-71
2021/12/22 11:01:27;;;;;;;19.33;8.67;;;0.10;99.90;;;;;;5058729;28;20194;-71
2021/12/22 11:04:02;;;;;;;17.60;8.37;;;0.10;99.90;;;;;;5054950;28;20196;-71
2021/12/22 11:06:32;;;;;;;23.33;10.40;;;-0.10;99.90;;;;;;5055126;28;20209;-71
2021/12/22 11:09:02;;;;;;;19.00;8.83;;;-0.10;99.90;;;;;;5054215;28;20305;-71
2021/12/22 11:11:36;;;;;;;22.33;9.63;;;-0.10;99.90;;;;;;5047449;28;20249;-71
2021/12/22 11:14:12;;;;;;;19.97;8.67;;;-0.10;99.90;;;;;;5054278;28;20198;-71
2021/12/22 11:17:03;;;;;;;20.07;8.83;;;-0.10;99.90;;;;;;5054567;28;20203;-71
2021/12/22 11:19:33;;;;;;;18.87;8.90;;;-0.10;99.90;;;;;;5055043;28;20668;-71
2021/12/22 11:22:09;;;;;;;20.07;9.27;;;0.00;99.90;;;;;;5053247;28;20570;-71
2021/12/22 11:24:39;;;;;;;18.73;8.77;;;0.10;99.90;;;;;;5061174;28;20207;-71
2021/12/22 11:27:09;;;;;;;19.37;8.47;;;0.20;99.90;;;;;;5056086;28;20227;-70
2021/12/22 11:29:37;;;;;;;23.60;10.20;;;0.20;99.90;;;;;;5056238;28;20213;-71
2021/12/22 11:32:07;;;;;;;20.60;8.60;;;0.20;99.90;;;;;;5054126;28;20227;-71
2021/12/22 11:34:36;;;;;;;23.20;10.23;;;0.30;99.90;;;;;;5051917;28;20288;-71
2021/12/22 11:37:05;;;;;;;20.93;9.67;;;0.40;99.90;;;;;;5061024;28;20203;-71
2021/12/22 11:39:32;;;;;;;19.37;9.03;;;0.50;99.90;;;;;;5055442;28;20213;-71
2021/12/22 11:42:03;;;;;;;21.93;9.30;;;0.60;99.90;;;;;;5059544;28;20208;-71
2021/12/22 11:44:32;;;;;;;21.20;9.40;;;0.50;99.90;;;;;;5056359;28;20237;-72
2021/12/22 11:47:01;;;;;;;18.63;8.80;;;0.50;99.90;;;;;;5051780;28;20218;-71
2021/12/22 11:49:29;;;;;;;19.20;8.97;;;0.50;99.90;;;;;;5055909;28;20210;-70
2021/12/22 11:51:59;;;;;;;18.93;9.60;;;0.60;99.90;;;;;;5052267;28;20211;-71
2021/12/22 11:54:28;;;;;;;19.23;8.97;;;0.60;99.90;;;;;;5055576;28;20207;-71
2021/12/22 11:56:57;;;;;;;18.60;8.57;;;0.60;99.90;;;;;;5056544;28;20205;-71
2021/12/22 11:59:46;;;;;;;20.03;9.50;;;0.70;99.90;;;;;;5052669;28;20206;-70
2021/12/22 12:02:24;;;;;;;19.37;9.20;;;0.80;99.90;;;;;;5047945;28;20209;-70
2021/12/22 12:04:55;;;;;;;19.23;8.90;;;0.70;99.90;;;;;;5056364;28;20202;-71
2021/12/22 12:07:41;;;;;;;19.97;8.20;;;0.80;99.90;;;;;;5048869;28;20203;-70
2021/12/22 12:10:39;;;;;;;19.80;9.23;;;0.90;99.90;;;;;;5054044;28;20552;-71
2021/12/22 12:13:16;;;;;;;19.43;8.47;;;0.80;99.90;;;;;;5055384;28;20222;-71
2021/12/22 12:21:39;;;;;;;20.67;8.70;;;0.80;99.90;;;;;;5052533;28;20214;-70
2021/12/22 12:22:31;;;;;;;21.17;9.20;;;0.80;99.90;;;;;;5041811;28;20267;-71
2021/12/22 12:25:10;;;;;;;18.40;8.63;;;0.80;99.90;;;;;;5050647;28;20195;-71
2021/12/22 12:27:49;;;;;;;17.87;8.10;;;0.90;99.90;;;;;;5052100;28;20210;-71
2021/12/22 12:30:23;;;;;;;22.10;8.90;;;0.80;99.90;;;;;;5047591;28;20207;-71
2021/12/22 12:33:13;;;;;;;18.23;8.27;;;0.80;99.90;;;;;;5051726;28;20226;-71
2021/12/22 12:36:08;;;;;;;20.53;9.43;;;0.80;99.90;;;;;;5053530;28;20676;-71
2021/12/22 12:38:49;;;;;;;18.10;8.97;;;0.90;99.90;;;;;;5048853;28;20665;-71
2021/12/22 12:41:25;;;;;;;19.17;7.83;;;1.10;99.90;;;;;;5055165;28;20202;-71
2021/12/22 12:44:04;;;;;;;18.60;8.10;;;1.10;99.90;;;;;;5053613;28;20234;-71
2021/12/22 12:46:48;;;;;;;19.50;8.70;;;1.10;99.90;;;;;;5053777;28;20207;-71
2021/12/22 12:49:43;;;;;;;17.47;8.03;;;1.20;99.90;;;;;;5056908;28;20275;-71
2021/12/22 12:52:26;;;;;;;17.57;8.67;;;1.40;99.90;;;;;;5064267;28;20718;-76
2021/12/22 12:55:12;;;;;;;17.53;8.73;;;1.20;99.90;;;;;;5058124;28;20453;-77
2021/12/22 12:57:39;;;;;;;19.13;9.00;;;1.20;99.90;;;;;;5046750;28;20203;-77
2021/12/22 13:00:23;;;;;;;19.90;8.93;;;1.10;99.90;;;;;;5061154;28;20218;-77